sensor_id;sensor_type;location;lat;lon;timestamp;P1;durP1;ratioP1;P2;durP2;ratioP2
26702;SDS011;14316;51.074;3.704;2023-02-26T00:01:41;9.63;;;3.50;;
26702;SDS011;14316;51.074;3.704;2023-02-26T00:04:07;13.18;;;4.70;;
26702;SDS011;14316;51.074;3.704;2023-02-26T00:06:36;11.90;;;3.72;;
26702;SDS011;14316;51.074;3.704;2023-02-26T00:09:03;10.70;;;3.42;;
26702;SDS011;14316;51.074;3.704;2023-02-26T00:11:30;12.43;;;4.07;;
26702;SDS011;14316;51.074;3.704;2023-02-26T00:13:56;9.07;;;3.42;;
26702;SDS011;14316;51.074;3.704;2023-02-26T00:16:27;7.65;;;3.03;;
26702;SDS011;14316;51.074;3.704;2023-02-26T00:18:59;7.85;;;3.45;;
26702;SDS011;14316;51.074;3.704;2023-02-26T00:21:27;9.23;;;3.28;;
26702;SDS011;14316;51.074;3.704;2023-02-26T00:23:54;8.75;;;3.50;;
26702;SDS011;14316;51.074;3.704;2023-02-26T00:26:21;12.98;;;4.10;;
26702;SDS011;14316;51.074;3.704;2023-02-26T00:28:49;9.02;;;3.50;;
26702;SDS011;14316;51.074;3.704;2023-02-26T00:31:15;6.93;;;3.00;;
26702;SDS011;14316;51.074;3.704;2023-02-26T00:33:44;8.02;;;3.10;;
26702;SDS011;14316;51.074;3.704;2023-02-26T00:36:19;9.10;;;3.38;;
26702;SDS011;14316;51.074;3.704;2023-02-26T00:41:39;17.35;;;3.67;;
26702;SDS011;14316;51.074;3.704;2023-02-26T00:44:05;10.60;;;3.13;;
26702;SDS011;14316;51.074;3.704;2023-02-26T00:46:35;7.45;;;3.15;;
26702;SDS011;14316;51.074;3.704;2023-02-26T00:49:25;7.18;;;3.13;;
26702;SDS011;14316;51.074;3.704;2023-02-26T00:52:13;9.65;;;3.45;;
26702;SDS011;14316;51.074;3.704;2023-02-26T00:54:44;7.75;;;2.97;;
26702;SDS011;14316;51.074;3.704;2023-02-26T00:57:10;10.90;;;3.50;;
26702;SDS011;14316;51.074;3.704;2023-02-26T00:59:35;12.18;;;3.63;;
26702;SDS011;14316;51.074;3.704;2023-02-26T01:02:01;8.70;;;3.25;;
26702;SDS011;14316;51.074;3.704;2023-02-26T01:04:27;12.40;;;3.00;;
26702;SDS011;14316;51.074;3.704;2023-02-26T01:06:54;6.75;;;2.85;;
26702;SDS011;14316;51.074;3.704;2023-02-26T01:09:31;10.45;;;3.47;;
26702;SDS011;14316;51.074;3.704;2023-02-26T01:12:00;14.02;;;3.47;;
26702;SDS011;14316;51.074;3.704;2023-02-26T01:14:31;11.68;;;2.95;;
26702;SDS011;14316;51.074;3.704;2023-02-26T01:17:10;10.13;;;2.80;;
26702;SDS011;14316;51.074;3.704;2023-02-26T01:19:59;8.60;;;2.72;;
26702;SDS011;14316;51.074;3.704;2023-02-26T01:22:36;7.03;;;2.90;;
26702;SDS011;14316;51.074;3.704;2023-02-26T01:25:12;9.65;;;3.58;;
26702;SDS011;14316;51.074;3.704;2023-02-26T01:27:42;10.85;;;2.92;;
26702;SDS011;14316;51.074;3.704;2023-02-26T01:30:09;8.07;;;2.95;;
26702;SDS011;14316;51.074;3.704;2023-02-26T01:35:16;10.80;;;3.17;;
26702;SDS011;14316;51.074;3.704;2023-02-26T01:45:58;8.68;;;2.75;;
26702;SDS011;14316;51.074;3.704;2023-02-26T01:48:33;6.90;;;2.83;;
26702;SDS011;14316;51.074;3.704;2023-02-26T01:51:02;7.50;;;2.83;;
26702;SDS011;14316;51.074;3.704;2023-02-26T01:53:28;12.68;;;3.63;;
26702;SDS011;14316;51.074;3.704;2023-02-26T01:55:55;8.73;;;2.85;;
26702;SDS011;14316;51.074;3.704;2023-02-26T01:58:33;12.55;;;3.10;;
26702;SDS011;14316;51.074;3.704;2023-02-26T02:01:01;6.80;;;2.88;;
26702;SDS011;14316;51.074;3.704;2023-02-26T02:03:28;7.30;;;2.70;;
26702;SDS011;14316;51.074;3.704;2023-02-26T02:06:14;8.35;;;2.72;;
26702;SDS011;14316;51.074;3.704;2023-02-26T02:08:44;8.63;;;2.60;;
26702;SDS011;14316;51.074;3.704;2023-02-26T02:11:10;8.40;;;2.40;;
26702;SDS011;14316;51.074;3.704;2023-02-26T02:22:10;7.38;;;2.60;;
26702;SDS011;14316;51.074;3.704;2023-02-26T02:25:08;7.60;;;2.60;;
26702;SDS011;14316;51.074;3.704;2023-02-26T02:27:59;9.02;;;2.72;;
26702;SDS011;14316;51.074;3.704;2023-02-26T02:33:09;7.45;;;2.50;;
26702;SDS011;14316;51.074;3.704;2023-02-26T02:35:49;9.13;;;2.65;;
26702;SDS011;14316;51.074;3.704;2023-02-26T02:38:22;5.90;;;1.83;;
26702;SDS011;14316;51.074;3.704;2023-02-26T02:41:03;10.13;;;2.67;;
26702;SDS011;14316;51.074;3.704;2023-02-26T02:43:32;6.38;;;2.38;;
26702;SDS011;14316;51.074;3.704;2023-02-26T02:46:04;7.93;;;2.50;;
26702;SDS011;14316;51.074;3.704;2023-02-26T02:48:34;8.55;;;2.42;;
26702;SDS011;14316;51.074;3.704;2023-02-26T02:51:30;7.07;;;2.60;;
26702;SDS011;14316;51.074;3.704;2023-02-26T02:54:03;6.45;;;2.63;;
26702;SDS011;14316;51.074;3.704;2023-02-26T02:57:25;7.40;;;2.65;;
26702;SDS011;14316;51.074;3.704;2023-02-26T02:59:29;5.80;;;2.63;;
26702;SDS011;14316;51.074;3.704;2023-02-26T03:02:12;10.55;;;2.47;;
26702;SDS011;14316;51.074;3.704;2023-02-26T03:04:52;6.00;;;2.45;;
26702;SDS011;14316;51.074;3.704;2023-02-26T03:07:18;8.82;;;3.70;;
26702;SDS011;14316;51.074;3.704;2023-02-26T03:09:44;9.93;;;2.83;;
26702;SDS011;14316;51.074;3.704;2023-02-26T03:12:10;9.02;;;3.28;;
26702;SDS011;14316;51.074;3.704;2023-02-26T03:14:36;12.85;;;4.35;;
26702;SDS011;14316;51.074;3.704;2023-02-26T03:22:34;7.20;;;2.47;;
26702;SDS011;14316;51.074;3.704;2023-02-26T03:25:19;7.15;;;1.75;;
26702;SDS011;14316;51.074;3.704;2023-02-26T03:28:21;4.78;;;1.95;;
26702;SDS011;14316;51.074;3.704;2023-02-26T03:34:38;7.65;;;1.88;;
26702;SDS011;14316;51.074;3.704;2023-02-26T03:37:06;7.00;;;1.88;;
26702;SDS011;14316;51.074;3.704;2023-02-26T03:39:41;5.68;;;2.10;;
26702;SDS011;14316;51.074;3.704;2023-02-26T03:42:11;4.60;;;1.67;;
26702;SDS011;14316;51.074;3.704;2023-02-26T03:44:55;9.43;;;2.17;;
26702;SDS011;14316;51.074;3.704;2023-02-26T03:47:24;7.75;;;1.92;;
26702;SDS011;14316;51.074;3.704;2023-02-26T03:52:32;6.18;;;1.80;;
26702;SDS011;14316;51.074;3.704;2023-02-26T03:55:10;7.55;;;1.90;;
26702;SDS011;14316;51.074;3.704;2023-02-26T03:57:40;11.52;;;2.42;;
26702;SDS011;14316;51.074;3.704;2023-02-26T04:00:07;5.63;;;1.92;;
26702;SDS011;14316;51.074;3.704;2023-02-26T04:02:46;5.15;;;1.60;;
26702;SDS011;14316;51.074;3.704;2023-02-26T04:05:20;2.35;;;1.25;;
26702;SDS011;14316;51.074;3.704;2023-02-26T04:07:49;6.30;;;1.40;;
26702;SDS011;14316;51.074;3.704;2023-02-26T04:10:18;8.68;;;1.70;;
26702;SDS011;14316;51.074;3.704;2023-02-26T04:12:49;5.00;;;1.98;;
26702;SDS011;14316;51.074;3.704;2023-02-26T04:15:15;6.15;;;2.13;;
26702;SDS011;14316;51.074;3.704;2023-02-26T04:17:40;7.00;;;1.60;;
26702;SDS011;14316;51.074;3.704;2023-02-26T04:20:06;5.97;;;1.58;;
26702;SDS011;14316;51.074;3.704;2023-02-26T04:22:34;9.98;;;1.50;;
26702;SDS011;14316;51.074;3.704;2023-02-26T04:24:59;4.78;;;1.60;;
26702;SDS011;14316;51.074;3.704;2023-02-26T04:27:25;6.13;;;1.52;;
26702;SDS011;14316;51.074;3.704;2023-02-26T04:29:51;6.25;;;1.65;;
26702;SDS011;14316;51.074;3.704;2023-02-26T04:32:17;4.78;;;1.70;;
26702;SDS011;14316;51.074;3.704;2023-02-26T04:34:42;6.82;;;1.63;;
26702;SDS011;14316;51.074;3.704;2023-02-26T04:37:08;4.35;;;1.50;;
26702;SDS011;14316;51.074;3.704;2023-02-26T04:39:35;4.80;;;1.48;;
26702;SDS011;14316;51.074;3.704;2023-02-26T04:42:01;4.72;;;1.35;;
26702;SDS011;14316;51.074;3.704;2023-02-26T04:44:28;5.50;;;1.30;;
26702;SDS011;14316;51.074;3.704;2023-02-26T04:46:54;10.50;;;1.80;;
26702;SDS011;14316;51.074;3.704;2023-02-26T04:49:19;6.80;;;1.67;;
26702;SDS011;14316;51.074;3.704;2023-02-26T04:51:46;4.80;;;1.58;;
26702;SDS011;14316;51.074;3.704;2023-02-26T04:54:11;3.55;;;1.50;;
26702;SDS011;14316;51.074;3.704;2023-02-26T04:56:37;4.22;;;2.05;;
26702;SDS011;14316;51.074;3.704;2023-02-26T04:59:03;5.20;;;2.00;;
26702;SDS011;14316;51.074;3.704;2023-02-26T05:01:28;3.80;;;1.40;;
26702;SDS011;14316;51.074;3.704;2023-02-26T05:03:55;4.80;;;1.50;;
26702;SDS011;14316;51.074;3.704;2023-02-26T05:06:20;8.38;;;1.73;;
26702;SDS011;14316;51.074;3.704;2023-02-26T05:08:46;6.90;;;1.35;;
26702;SDS011;14316;51.074;3.704;2023-02-26T05:11:12;5.10;;;1.30;;
26702;SDS011;14316;51.074;3.704;2023-02-26T05:13:38;5.28;;;1.23;;
26702;SDS011;14316;51.074;3.704;2023-02-26T05:16:04;5.90;;;1.80;;
26702;SDS011;14316;51.074;3.704;2023-02-26T05:18:30;6.60;;;1.60;;
26702;SDS011;14316;51.074;3.704;2023-02-26T05:20:56;5.85;;;1.38;;
26702;SDS011;14316;51.074;3.704;2023-02-26T05:23:22;5.63;;;1.50;;
26702;SDS011;14316;51.074;3.704;2023-02-26T05:25:48;6.80;;;1.58;;
26702;SDS011;14316;51.074;3.704;2023-02-26T05:28:15;6.35;;;1.42;;
26702;SDS011;14316;51.074;3.704;2023-02-26T05:30:40;6.25;;;2.08;;
26702;SDS011;14316;51.074;3.704;2023-02-26T05:33:07;6.97;;;1.77;;
26702;SDS011;14316;51.074;3.704;2023-02-26T05:35:33;3.70;;;1.63;;
26702;SDS011;14316;51.074;3.704;2023-02-26T05:37:59;7.50;;;1.48;;
26702;SDS011;14316;51.074;3.704;2023-02-26T05:40:25;5.40;;;1.40;;
26702;SDS011;14316;51.074;3.704;2023-02-26T05:42:51;4.95;;;1.40;;
26702;SDS011;14316;51.074;3.704;2023-02-26T05:45:16;4.43;;;1.48;;
26702;SDS011;14316;51.074;3.704;2023-02-26T05:47:42;4.65;;;1.30;;
26702;SDS011;14316;51.074;3.704;2023-02-26T05:50:08;6.20;;;1.48;;
26702;SDS011;14316;51.074;3.704;2023-02-26T05:52:35;5.95;;;1.40;;
26702;SDS011;14316;51.074;3.704;2023-02-26T05:55:01;5.10;;;1.50;;
26702;SDS011;14316;51.074;3.704;2023-02-26T05:57:27;12.07;;;2.10;;
26702;SDS011;14316;51.074;3.704;2023-02-26T05:59:53;3.72;;;1.40;;
26702;SDS011;14316;51.074;3.704;2023-02-26T06:02:19;5.07;;;1.17;;
26702;SDS011;14316;51.074;3.704;2023-02-26T06:04:44;4.15;;;1.40;;
26702;SDS011;14316;51.074;3.704;2023-02-26T06:07:10;3.80;;;1.08;;
26702;SDS011;14316;51.074;3.704;2023-02-26T06:09:36;5.05;;;1.25;;
26702;SDS011;14316;51.074;3.704;2023-02-26T06:12:01;3.55;;;1.10;;
26702;SDS011;14316;51.074;3.704;2023-02-26T06:14:27;5.05;;;1.60;;
26702;SDS011;14316;51.074;3.704;2023-02-26T06:16:54;4.63;;;1.10;;
26702;SDS011;14316;51.074;3.704;2023-02-26T06:19:20;6.00;;;1.50;;
26702;SDS011;14316;51.074;3.704;2023-02-26T06:21:46;4.40;;;1.20;;
26702;SDS011;14316;51.074;3.704;2023-02-26T06:24:12;4.22;;;1.08;;
26702;SDS011;14316;51.074;3.704;2023-02-26T06:26:37;3.47;;;1.42;;
26702;SDS011;14316;51.074;3.704;2023-02-26T06:29:03;5.72;;;1.35;;
26702;SDS011;14316;51.074;3.704;2023-02-26T06:31:29;4.30;;;1.45;;
26702;SDS011;14316;51.074;3.704;2023-02-26T06:33:55;5.15;;;1.13;;
26702;SDS011;14316;51.074;3.704;2023-02-26T06:36:23;3.03;;;1.20;;
26702;SDS011;14316;51.074;3.704;2023-02-26T06:38:48;3.92;;;1.67;;
26702;SDS011;14316;51.074;3.704;2023-02-26T06:41:14;5.95;;;1.60;;
26702;SDS011;14316;51.074;3.704;2023-02-26T06:43:40;4.90;;;1.20;;
26702;SDS011;14316;51.074;3.704;2023-02-26T06:46:06;5.57;;;1.60;;
26702;SDS011;14316;51.074;3.704;2023-02-26T06:48:32;3.47;;;1.30;;
26702;SDS011;14316;51.074;3.704;2023-02-26T06:50:58;6.15;;;1.17;;
26702;SDS011;14316;51.074;3.704;2023-02-26T06:53:24;1.88;;;1.15;;
26702;SDS011;14316;51.074;3.704;2023-02-26T06:55:50;6.25;;;1.17;;
26702;SDS011;14316;51.074;3.704;2023-02-26T06:58:17;4.30;;;1.55;;
26702;SDS011;14316;51.074;3.704;2023-02-26T07:00:43;3.92;;;1.50;;
26702;SDS011;14316;51.074;3.704;2023-02-26T07:03:10;4.82;;;1.40;;
26702;SDS011;14316;51.074;3.704;2023-02-26T07:05:38;6.65;;;1.67;;
26702;SDS011;14316;51.074;3.704;2023-02-26T07:08:03;7.68;;;1.60;;
26702;SDS011;14316;51.074;3.704;2023-02-26T07:10:31;5.88;;;1.48;;
26702;SDS011;14316;51.074;3.704;2023-02-26T07:12:58;3.85;;;1.38;;
26702;SDS011;14316;51.074;3.704;2023-02-26T07:15:23;5.15;;;1.70;;
26702;SDS011;14316;51.074;3.704;2023-02-26T07:17:50;4.03;;;1.50;;
26702;SDS011;14316;51.074;3.704;2023-02-26T07:20:15;4.82;;;1.58;;
26702;SDS011;14316;51.074;3.704;2023-02-26T07:22:42;5.20;;;1.40;;
26702;SDS011;14316;51.074;3.704;2023-02-26T07:25:08;5.78;;;1.40;;
26702;SDS011;14316;51.074;3.704;2023-02-26T07:27:34;3.35;;;1.52;;
26702;SDS011;14316;51.074;3.704;2023-02-26T07:30:00;4.45;;;1.45;;
26702;SDS011;14316;51.074;3.704;2023-02-26T07:32:26;9.32;;;1.77;;
26702;SDS011;14316;51.074;3.704;2023-02-26T07:34:51;6.32;;;1.30;;
26702;SDS011;14316;51.074;3.704;2023-02-26T07:37:17;5.85;;;1.70;;
26702;SDS011;14316;51.074;3.704;2023-02-26T07:39:43;4.60;;;1.77;;
26702;SDS011;14316;51.074;3.704;2023-02-26T07:42:10;3.72;;;1.60;;
26702;SDS011;14316;51.074;3.704;2023-02-26T07:44:35;4.25;;;1.30;;
26702;SDS011;14316;51.074;3.704;2023-02-26T07:47:01;4.65;;;1.98;;
26702;SDS011;14316;51.074;3.704;2023-02-26T07:49:27;5.30;;;1.30;;
26702;SDS011;14316;51.074;3.704;2023-02-26T07:51:53;4.18;;;1.45;;
26702;SDS011;14316;51.074;3.704;2023-02-26T07:54:19;3.25;;;1.38;;
26702;SDS011;14316;51.074;3.704;2023-02-26T07:56:44;6.10;;;1.40;;
26702;SDS011;14316;51.074;3.704;2023-02-26T07:59:10;4.68;;;1.35;;
26702;SDS011;14316;51.074;3.704;2023-02-26T08:01:36;7.22;;;1.52;;
26702;SDS011;14316;51.074;3.704;2023-02-26T08:04:02;5.63;;;1.60;;
26702;SDS011;14316;51.074;3.704;2023-02-26T08:06:28;2.83;;;1.45;;
26702;SDS011;14316;51.074;3.704;2023-02-26T08:08:54;3.78;;;1.50;;
26702;SDS011;14316;51.074;3.704;2023-02-26T08:11:21;4.60;;;1.52;;
26702;SDS011;14316;51.074;3.704;2023-02-26T08:13:47;6.13;;;1.50;;
26702;SDS011;14316;51.074;3.704;2023-02-26T08:16:12;5.18;;;1.42;;
26702;SDS011;14316;51.074;3.704;2023-02-26T08:18:39;3.08;;;1.20;;
26702;SDS011;14316;51.074;3.704;2023-02-26T08:21:04;4.10;;;1.67;;
26702;SDS011;14316;51.074;3.704;2023-02-26T08:23:30;2.90;;;1.40;;
26702;SDS011;14316;51.074;3.704;2023-02-26T08:26:03;3.55;;;1.45;;
26702;SDS011;14316;51.074;3.704;2023-02-26T08:28:30;5.05;;;1.65;;
26702;SDS011;14316;51.074;3.704;2023-02-26T08:30:57;5.57;;;2.03;;
26702;SDS011;14316;51.074;3.704;2023-02-26T08:33:23;3.53;;;1.48;;
26702;SDS011;14316;51.074;3.704;2023-02-26T08:35:49;4.80;;;1.70;;
26702;SDS011;14316;51.074;3.704;2023-02-26T08:38:15;4.40;;;1.45;;
26702;SDS011;14316;51.074;3.704;2023-02-26T08:40:41;3.03;;;1.30;;
26702;SDS011;14316;51.074;3.704;2023-02-26T08:43:08;10.25;;;1.80;;
26702;SDS011;14316;51.074;3.704;2023-02-26T08:45:35;4.38;;;1.85;;
26702;SDS011;14316;51.074;3.704;2023-02-26T08:48:01;5.68;;;1.80;;
26702;SDS011;14316;51.074;3.704;2023-02-26T08:50:27;6.03;;;1.70;;
26702;SDS011;14316;51.074;3.704;2023-02-26T08:52:53;4.50;;;1.50;;
26702;SDS011;14316;51.074;3.704;2023-02-26T08:55:19;4.47;;;2.20;;
26702;SDS011;14316;51.074;3.704;2023-02-26T08:57:45;3.42;;;1.35;;
26702;SDS011;14316;51.074;3.704;2023-02-26T09:00:11;3.45;;;1.52;;
26702;SDS011;14316;51.074;3.704;2023-02-26T09:02:40;4.57;;;1.98;;
26702;SDS011;14316;51.074;3.704;2023-02-26T09:05:06;3.92;;;1.42;;
26702;SDS011;14316;51.074;3.704;2023-02-26T09:07:32;4.28;;;1.40;;
26702;SDS011;14316;51.074;3.704;2023-02-26T09:10:01;3.47;;;1.60;;
26702;SDS011;14316;51.074;3.704;2023-02-26T09:12:26;3.88;;;1.30;;
26702;SDS011;14316;51.074;3.704;2023-02-26T09:14:52;5.40;;;1.08;;
26702;SDS011;14316;51.074;3.704;2023-02-26T09:17:18;8.18;;;1.55;;
26702;SDS011;14316;51.074;3.704;2023-02-26T09:19:44;3.85;;;1.48;;
26702;SDS011;14316;51.074;3.704;2023-02-26T09:22:09;3.20;;;1.27;;
26702;SDS011;14316;51.074;3.704;2023-02-26T09:24:35;1.98;;;1.27;;
26702;SDS011;14316;51.074;3.704;2023-02-26T09:27:01;3.10;;;1.27;;
26702;SDS011;14316;51.074;3.704;2023-02-26T09:29:27;3.17;;;1.20;;
26702;SDS011;14316;51.074;3.704;2023-02-26T09:31:53;5.15;;;1.40;;
26702;SDS011;14316;51.074;3.704;2023-02-26T09:34:19;2.00;;;1.83;;
26702;SDS011;14316;51.074;3.704;2023-02-26T09:36:45;3.17;;;1.33;;
26702;SDS011;14316;51.074;3.704;2023-02-26T09:39:11;4.78;;;1.20;;
26702;SDS011;14316;51.074;3.704;2023-02-26T09:41:46;2.08;;;1.27;;
26702;SDS011;14316;51.074;3.704;2023-02-26T09:44:22;4.97;;;1.63;;
26702;SDS011;14316;51.074;3.704;2023-02-26T09:46:55;2.67;;;1.30;;
26702;SDS011;14316;51.074;3.704;2023-02-26T09:52:28;2.42;;;1.38;;
26702;SDS011;14316;51.074;3.704;2023-02-26T09:55:47;5.63;;;2.30;;
26702;SDS011;14316;51.074;3.704;2023-02-26T09:57:55;2.90;;;1.27;;
26702;SDS011;14316;51.074;3.704;2023-02-26T10:00:36;4.18;;;1.55;;
26702;SDS011;14316;51.074;3.704;2023-02-26T10:03:13;4.35;;;1.30;;
26702;SDS011;14316;51.074;3.704;2023-02-26T10:11:28;1.90;;;1.00;;
26702;SDS011;14316;51.074;3.704;2023-02-26T10:14:02;5.07;;;1.52;;
26702;SDS011;14316;51.074;3.704;2023-02-26T10:16:40;2.92;;;1.30;;
26702;SDS011;14316;51.074;3.704;2023-02-26T10:19:10;1.90;;;1.50;;
26702;SDS011;14316;51.074;3.704;2023-02-26T10:21:42;4.43;;;1.33;;
26702;SDS011;14316;51.074;3.704;2023-02-26T10:24:22;1.58;;;1.20;;
26702;SDS011;14316;51.074;3.704;2023-02-26T10:27:08;2.58;;;1.00;;
26702;SDS011;14316;51.074;3.704;2023-02-26T10:29:56;3.42;;;1.58;;
26702;SDS011;14316;51.074;3.704;2023-02-26T10:32:36;3.42;;;1.17;;
26702;SDS011;14316;51.074;3.704;2023-02-26T10:35:13;3.60;;;1.10;;
26702;SDS011;14316;51.074;3.704;2023-02-26T10:37:53;2.40;;;1.10;;
26702;SDS011;14316;51.074;3.704;2023-02-26T10:43:20;2.55;;;1.45;;
26702;SDS011;14316;51.074;3.704;2023-02-26T10:50:56;2.80;;;1.80;;
26702;SDS011;14316;51.074;3.704;2023-02-26T10:53:24;4.25;;;1.48;;
26702;SDS011;14316;51.074;3.704;2023-02-26T10:55:55;2.88;;;1.05;;
26702;SDS011;14316;51.074;3.704;2023-02-26T10:58:22;3.30;;;1.30;;
26702;SDS011;14316;51.074;3.704;2023-02-26T11:00:50;3.65;;;1.33;;
26702;SDS011;14316;51.074;3.704;2023-02-26T11:05:58;2.38;;;1.50;;
26702;SDS011;14316;51.074;3.704;2023-02-26T11:08:31;6.85;;;1.80;;
26702;SDS011;14316;51.074;3.704;2023-02-26T11:11:01;3.25;;;1.52;;
26702;SDS011;14316;51.074;3.704;2023-02-26T11:13:30;2.50;;;1.25;;
26702;SDS011;14316;51.074;3.704;2023-02-26T11:16:00;3.33;;;1.20;;
26702;SDS011;14316;51.074;3.704;2023-02-26T11:21:06;4.95;;;1.27;;
26702;SDS011;14316;51.074;3.704;2023-02-26T11:23:33;2.08;;;1.02;;
26702;SDS011;14316;51.074;3.704;2023-02-26T11:26:04;4.07;;;1.20;;
26702;SDS011;14316;51.074;3.704;2023-02-26T11:31:10;3.22;;;1.60;;
26702;SDS011;14316;51.074;3.704;2023-02-26T11:33:40;5.47;;;1.40;;
26702;SDS011;14316;51.074;3.704;2023-02-26T11:36:22;4.25;;;1.58;;
26702;SDS011;14316;51.074;3.704;2023-02-26T11:38:52;2.95;;;1.40;;
26702;SDS011;14316;51.074;3.704;2023-02-26T11:41:23;2.65;;;1.40;;
26702;SDS011;14316;51.074;3.704;2023-02-26T11:44:02;2.97;;;1.25;;
26702;SDS011;14316;51.074;3.704;2023-02-26T11:46:41;3.33;;;1.52;;
26702;SDS011;14316;51.074;3.704;2023-02-26T11:49:14;5.50;;;1.67;;
26702;SDS011;14316;51.074;3.704;2023-02-26T11:54:24;3.30;;;1.35;;
26702;SDS011;14316;51.074;3.704;2023-02-26T11:56:59;3.53;;;1.55;;
26702;SDS011;14316;51.074;3.704;2023-02-26T11:59:26;2.65;;;1.38;;
26702;SDS011;14316;51.074;3.704;2023-02-26T12:01:56;4.18;;;1.70;;
26702;SDS011;14316;51.074;3.704;2023-02-26T12:04:27;1.55;;;0.85;;
26702;SDS011;14316;51.074;3.704;2023-02-26T12:06:53;4.25;;;1.73;;
26702;SDS011;14316;51.074;3.704;2023-02-26T12:09:20;1.58;;;1.00;;
26702;SDS011;14316;51.074;3.704;2023-02-26T12:14:43;1.75;;;1.25;;
26702;SDS011;14316;51.074;3.704;2023-02-26T12:25:33;2.75;;;1.23;;
26702;SDS011;14316;51.074;3.704;2023-02-26T12:28:30;2.63;;;1.50;;
26702;SDS011;14316;51.074;3.704;2023-02-26T12:36:43;2.55;;;1.30;;
26702;SDS011;14316;51.074;3.704;2023-02-26T12:39:42;3.13;;;1.30;;
26702;SDS011;14316;51.074;3.704;2023-02-26T12:42:21;3.17;;;1.40;;
26702;SDS011;14316;51.074;3.704;2023-02-26T12:48:05;7.93;;;6.97;;
26702;SDS011;14316;51.074;3.704;2023-02-26T13:02:37;4.10;;;1.58;;
26702;SDS011;14316;51.074;3.704;2023-02-26T13:05:06;2.53;;;1.40;;
26702;SDS011;14316;51.074;3.704;2023-02-26T13:07:57;3.97;;;2.20;;
26702;SDS011;14316;51.074;3.704;2023-02-26T13:16:37;1.83;;;1.10;;
26702;SDS011;14316;51.074;3.704;2023-02-26T13:22:07;2.20;;;1.23;;
26702;SDS011;14316;51.074;3.704;2023-02-26T13:24:40;4.40;;;1.38;;
26702;SDS011;14316;51.074;3.704;2023-02-26T13:27:10;3.65;;;1.30;;
26702;SDS011;14316;51.074;3.704;2023-02-26T13:29:50;2.83;;;1.58;;
26702;SDS011;14316;51.074;3.704;2023-02-26T13:32:25;2.85;;;1.50;;
26702;SDS011;14316;51.074;3.704;2023-02-26T13:34:54;3.95;;;1.50;;
26702;SDS011;14316;51.074;3.704;2023-02-26T13:39:55;3.13;;;1.20;;
26702;SDS011;14316;51.074;3.704;2023-02-26T13:48:21;4.40;;;1.42;;
26702;SDS011;14316;51.074;3.704;2023-02-26T13:54:07;2.70;;;1.23;;
26702;SDS011;14316;51.074;3.704;2023-02-26T13:59:03;5.70;;;1.80;;
26702;SDS011;14316;51.074;3.704;2023-02-26T14:07:43;2.88;;;1.60;;
26702;SDS011;14316;51.074;3.704;2023-02-26T14:09:44;2.53;;;1.42;;
26702;SDS011;14316;51.074;3.704;2023-02-26T14:12:36;2.00;;;1.25;;
26702;SDS011;14316;51.074;3.704;2023-02-26T14:17:46;2.00;;;1.15;;
26702;SDS011;14316;51.074;3.704;2023-02-26T14:23:41;1.80;;;1.42;;
26702;SDS011;14316;51.074;3.704;2023-02-26T14:26:11;3.88;;;1.20;;
26702;SDS011;14316;51.074;3.704;2023-02-26T14:29:15;3.22;;;1.52;;
26702;SDS011;14316;51.074;3.704;2023-02-26T14:34:15;3.75;;;1.42;;
26702;SDS011;14316;51.074;3.704;2023-02-26T14:36:47;3.03;;;1.10;;
26702;SDS011;14316;51.074;3.704;2023-02-26T14:39:24;3.53;;;1.20;;
26702;SDS011;14316;51.074;3.704;2023-02-26T14:41:58;4.40;;;1.25;;
26702;SDS011;14316;51.074;3.704;2023-02-26T14:44:41;2.45;;;1.23;;
26702;SDS011;14316;51.074;3.704;2023-02-26T14:47:14;3.47;;;1.10;;
26702;SDS011;14316;51.074;3.704;2023-02-26T14:49:43;2.65;;;1.20;;
26702;SDS011;14316;51.074;3.704;2023-02-26T14:55:02;3.28;;;1.85;;
26702;SDS011;14316;51.074;3.704;2023-02-26T14:58:16;3.45;;;1.80;;
26702;SDS011;14316;51.074;3.704;2023-02-26T15:00:45;3.38;;;1.50;;
26702;SDS011;14316;51.074;3.704;2023-02-26T15:17:04;2.35;;;1.30;;
26702;SDS011;14316;51.074;3.704;2023-02-26T15:19:44;2.42;;;1.23;;
26702;SDS011;14316;51.074;3.704;2023-02-26T15:25:51;3.40;;;1.40;;
26702;SDS011;14316;51.074;3.704;2023-02-26T15:28:03;2.45;;;1.70;;
26702;SDS011;14316;51.074;3.704;2023-02-26T15:30:35;5.10;;;1.50;;
26702;SDS011;14316;51.074;3.704;2023-02-26T15:33:02;4.55;;;1.90;;
26702;SDS011;14316;51.074;3.704;2023-02-26T15:35:30;5.22;;;2.10;;
26702;SDS011;14316;51.074;3.704;2023-02-26T15:37:59;6.40;;;2.80;;
26702;SDS011;14316;51.074;3.704;2023-02-26T15:40:30;5.40;;;3.60;;
26702;SDS011;14316;51.074;3.704;2023-02-26T15:43:01;5.03;;;3.17;;
26702;SDS011;14316;51.074;3.704;2023-02-26T15:48:03;4.45;;;3.25;;
26702;SDS011;14316;51.074;3.704;2023-02-26T15:50:34;3.80;;;2.10;;
26702;SDS011;14316;51.074;3.704;2023-02-26T15:53:03;3.65;;;2.20;;
26702;SDS011;14316;51.074;3.704;2023-02-26T15:55:31;2.97;;;2.08;;
26702;SDS011;14316;51.074;3.704;2023-02-26T15:58:01;4.82;;;2.58;;
26702;SDS011;14316;51.074;3.704;2023-02-26T16:00:30;3.90;;;1.88;;
26702;SDS011;14316;51.074;3.704;2023-02-26T16:02:57;2.22;;;1.52;;
26702;SDS011;14316;51.074;3.704;2023-02-26T16:05:26;2.28;;;1.27;;
26702;SDS011;14316;51.074;3.704;2023-02-26T16:07:54;2.60;;;1.50;;
26702;SDS011;14316;51.074;3.704;2023-02-26T16:12:57;4.55;;;2.17;;
26702;SDS011;14316;51.074;3.704;2023-02-26T16:15:34;3.65;;;1.70;;
26702;SDS011;14316;51.074;3.704;2023-02-26T16:18:06;4.57;;;1.83;;
26702;SDS011;14316;51.074;3.704;2023-02-26T16:20:44;5.20;;;2.67;;
26702;SDS011;14316;51.074;3.704;2023-02-26T16:23:17;5.25;;;3.03;;
26702;SDS011;14316;51.074;3.704;2023-02-26T16:28:27;6.40;;;4.07;;
26702;SDS011;14316;51.074;3.704;2023-02-26T16:30:59;7.60;;;3.80;;
26702;SDS011;14316;51.074;3.704;2023-02-26T16:33:30;7.45;;;3.30;;
26702;SDS011;14316;51.074;3.704;2023-02-26T16:36:13;5.60;;;2.80;;
26702;SDS011;14316;51.074;3.704;2023-02-26T16:38:46;5.93;;;3.10;;
26702;SDS011;14316;51.074;3.704;2023-02-26T16:41:13;8.90;;;3.33;;
26702;SDS011;14316;51.074;3.704;2023-02-26T16:46:09;2.53;;;1.48;;
26702;SDS011;14316;51.074;3.704;2023-02-26T16:51:11;3.88;;;1.30;;
26702;SDS011;14316;51.074;3.704;2023-02-26T16:53:43;2.88;;;1.30;;
26702;SDS011;14316;51.074;3.704;2023-02-26T16:56:14;3.60;;;1.42;;
26702;SDS011;14316;51.074;3.704;2023-02-26T16:58:47;4.15;;;1.50;;
26702;SDS011;14316;51.074;3.704;2023-02-26T17:01:23;2.88;;;1.40;;
26702;SDS011;14316;51.074;3.704;2023-02-26T17:03:49;6.28;;;1.80;;
26702;SDS011;14316;51.074;3.704;2023-02-26T17:06:22;3.63;;;1.65;;
26702;SDS011;14316;51.074;3.704;2023-02-26T17:11:20;4.10;;;1.60;;
26702;SDS011;14316;51.074;3.704;2023-02-26T17:14:02;3.13;;;1.75;;
26702;SDS011;14316;51.074;3.704;2023-02-26T17:16:34;2.35;;;1.58;;
26702;SDS011;14316;51.074;3.704;2023-02-26T17:18:59;4.43;;;1.52;;
26702;SDS011;14316;51.074;3.704;2023-02-26T17:21:26;5.38;;;1.50;;
26702;SDS011;14316;51.074;3.704;2023-02-26T17:23:53;4.25;;;1.80;;
26702;SDS011;14316;51.074;3.704;2023-02-26T17:26:19;3.20;;;1.85;;
26702;SDS011;14316;51.074;3.704;2023-02-26T17:28:45;4.57;;;1.70;;
26702;SDS011;14316;51.074;3.704;2023-02-26T17:31:11;4.38;;;1.70;;
26702;SDS011;14316;51.074;3.704;2023-02-26T17:33:39;4.18;;;1.50;;
26702;SDS011;14316;51.074;3.704;2023-02-26T17:36:06;5.18;;;2.17;;
26702;SDS011;14316;51.074;3.704;2023-02-26T17:38:32;3.88;;;1.70;;
26702;SDS011;14316;51.074;3.704;2023-02-26T17:40:58;4.25;;;1.65;;
26702;SDS011;14316;51.074;3.704;2023-02-26T17:43:24;2.88;;;1.42;;
26702;SDS011;14316;51.074;3.704;2023-02-26T17:45:51;3.88;;;1.80;;
26702;SDS011;14316;51.074;3.704;2023-02-26T17:48:17;8.27;;;2.15;;
26702;SDS011;14316;51.074;3.704;2023-02-26T17:53:08;4.35;;;2.30;;
26702;SDS011;14316;51.074;3.704;2023-02-26T17:55:34;4.60;;;1.98;;
26702;SDS011;14316;51.074;3.704;2023-02-26T17:58:03;4.65;;;2.55;;